createdAt,value
2018-12-04T00:00:27.761Z,101128.70
2018-12-04T00:02:56.593Z,101123.48
2018-12-04T00:05:25.421Z,101133.23
2018-12-04T00:07:54.297Z,101127.88
2018-12-04T00:10:23.130Z,101125.22
2018-12-04T00:12:52.029Z,101124.98
2018-12-04T00:15:20.928Z,101124.34
2018-12-04T00:17:50.556Z,101122.23
2018-12-04T00:20:19.400Z,101109.40
2018-12-04T00:22:48.271Z,101112.69
2018-12-04T00:25:21.237Z,101119.20
2018-12-04T00:27:52.000Z,101113.02
2018-12-04T00:30:32.720Z,101105.66
2018-12-04T00:33:02.733Z,101105.11
2018-12-04T00:35:32.970Z,101102.71
2018-12-04T00:38:03.578Z,101102.30
2018-12-04T00:40:37.630Z,101106.91
2018-12-04T00:43:07.458Z,101102.91
2018-12-04T00:45:36.288Z,101102.80
2018-12-04T00:48:05.761Z,101110.59
2018-12-04T00:50:34.658Z,101109.85
2018-12-04T00:53:05.160Z,101113.53
2018-12-04T00:55:42.162Z,101110.34
2018-12-04T00:58:11.045Z,101103.87
2018-12-04T01:00:40.601Z,101097.55
2018-12-04T01:03:09.438Z,101097.86
2018-12-04T01:05:38.820Z,101097.80
2018-12-04T01:08:07.653Z,101093.94
2018-12-04T01:10:36.589Z,101091.13
2018-12-04T01:13:05.409Z,101085.20
2018-12-04T01:15:35.241Z,101084.89
2018-12-04T01:18:04.094Z,101083.80
2018-12-04T01:20:33.874Z,101078.16
2018-12-04T01:23:02.705Z,101083.10
2018-12-04T01:25:31.569Z,101083.41
2018-12-04T01:28:00.409Z,101078.71
2018-12-04T01:30:29.214Z,101075.03
2018-12-04T01:32:58.322Z,101072.56
2018-12-04T01:35:27.102Z,101072.77
2018-12-04T01:37:55.925Z,101073.95
2018-12-04T01:40:24.770Z,101068.95
2018-12-04T01:42:53.574Z,101058.67
2018-12-04T01:45:22.369Z,101057.16
2018-12-04T01:47:51.211Z,101054.69
2018-12-04T01:50:20.050Z,101052.02
2018-12-04T01:52:50.353Z,101044.91
2018-12-04T01:55:19.144Z,101050.05
2018-12-04T01:57:47.932Z,101041.73
2018-12-04T02:00:16.782Z,101038.86
2018-12-04T02:02:45.579Z,101039.50
2018-12-04T02:05:14.511Z,101044.00
2018-12-04T02:07:43.368Z,101037.58
2018-12-04T02:10:12.161Z,101037.70
2018-12-04T02:12:41.037Z,101028.98
2018-12-04T02:15:10.239Z,101029.63
2018-12-04T02:17:39.019Z,101025.06
2018-12-04T02:20:07.869Z,101024.76
2018-12-04T02:22:36.713Z,101029.87
2018-12-04T02:25:05.918Z,101025.73
2018-12-04T02:27:34.739Z,101025.94
2018-12-04T02:30:04.197Z,101028.77
2018-12-04T02:32:33.026Z,101025.39
2018-12-04T02:35:01.809Z,101023.77
2018-12-04T02:37:30.635Z,101019.69
2018-12-04T02:39:59.444Z,101017.63
2018-12-04T02:42:28.995Z,101022.83
2018-12-04T02:44:59.189Z,101016.57
2018-12-04T02:47:33.209Z,101022.24
2018-12-04T02:50:07.374Z,101021.17
2018-12-04T02:52:38.673Z,101020.02
2018-12-04T02:55:07.805Z,101017.19
2018-12-04T02:57:43.093Z,101015.43
2018-12-04T03:00:13.110Z,101016.00
2018-12-04T03:02:41.902Z,101013.35
2018-12-04T03:05:10.811Z,101016.70
2018-12-04T03:07:42.214Z,101019.65
2018-12-04T03:10:13.518Z,101009.45
2018-12-04T03:12:44.034Z,101010.34
2018-12-04T03:15:12.924Z,101006.53
2018-12-04T03:17:41.729Z,101010.95
2018-12-04T03:20:12.757Z,101005.69
2018-12-04T03:22:41.549Z,101001.57
2018-12-04T03:25:14.384Z,101008.40
2018-12-04T03:27:46.112Z,101009.15
2018-12-04T03:30:14.991Z,101002.13
2018-12-04T03:32:43.806Z,101005.59
2018-12-04T03:35:14.538Z,100998.86
2018-12-04T03:37:44.401Z,101005.11
2018-12-04T03:40:14.117Z,101003.16
2018-12-04T03:42:44.683Z,101003.30
2018-12-04T03:45:13.650Z,101007.86
2018-12-04T03:47:42.970Z,101000.14
2018-12-04T03:50:14.091Z,101006.32
2018-12-04T03:52:46.485Z,101010.28
2018-12-04T03:55:15.349Z,100999.63
2018-12-04T03:57:44.189Z,101006.95
2018-12-04T04:00:24.190Z,101003.30
2018-12-04T04:02:56.471Z,101002.61
2018-12-04T04:05:25.365Z,101010.91
2018-12-04T04:07:54.153Z,101013.92
2018-12-04T04:10:23.017Z,101016.02
2018-12-04T04:12:55.542Z,101017.05
2018-12-04T04:15:28.013Z,101020.58
2018-12-04T04:17:58.849Z,101022.89
2018-12-04T04:20:27.654Z,101030.64
2018-12-04T04:22:56.456Z,101031.70
2018-12-04T04:25:26.478Z,101033.59
2018-12-04T04:27:56.175Z,101029.91
2018-12-04T04:30:26.361Z,100983.17
2018-12-04T04:32:55.825Z,101030.64
2018-12-04T04:35:24.634Z,101030.52
2018-12-04T04:37:53.473Z,101037.27
2018-12-04T04:40:22.854Z,101039.02
2018-12-04T04:42:57.794Z,101036.59
2018-12-04T04:45:27.275Z,101036.36
2018-12-04T04:47:56.998Z,101039.13
2018-12-04T04:50:25.947Z,101042.31
2018-12-04T04:52:57.232Z,101039.11
2018-12-04T04:55:27.109Z,101045.20
2018-12-04T04:57:58.312Z,101044.85
2018-12-04T05:00:28.861Z,101048.61
2018-12-04T05:03:01.254Z,101055.84
2018-12-04T05:05:37.689Z,101059.89
2018-12-04T05:08:07.112Z,101056.44
2018-12-04T05:15:33.500Z,101050.59
2018-12-04T05:18:03.663Z,101057.21
2018-12-04T05:20:32.505Z,101057.58
2018-12-04T05:23:02.660Z,101056.77
2018-12-04T05:25:31.533Z,101061.44
2018-12-04T05:28:00.341Z,101056.62
2018-12-04T05:30:29.158Z,101052.78
2018-12-04T05:32:59.251Z,101055.69
2018-12-04T05:35:28.107Z,101055.86
2018-12-04T05:37:58.261Z,101056.84
2018-12-04T05:40:27.043Z,101051.77
2018-12-04T05:42:55.970Z,101055.73
2018-12-04T05:45:25.973Z,101058.14
2018-12-04T05:47:54.800Z,101058.34
2018-12-04T05:50:23.583Z,101065.10
2018-12-04T05:53:03.404Z,101061.67
2018-12-04T05:55:33.477Z,101062.36
2018-12-04T05:58:02.933Z,101067.94
2018-12-04T06:00:33.138Z,101068.80
2018-12-04T06:03:02.025Z,101069.00
2018-12-04T06:05:31.517Z,101061.09
2018-12-04T06:08:03.248Z,101062.85
2018-12-04T06:10:32.704Z,101067.34
2018-12-04T06:13:03.102Z,101061.39
2018-12-04T06:15:31.974Z,101066.83
2018-12-04T06:18:00.993Z,101070.08
2018-12-04T06:20:29.962Z,101067.95
2018-12-04T06:23:02.134Z,101068.09
2018-12-04T06:25:31.885Z,101070.92
2018-12-04T06:28:00.838Z,101072.94
2018-12-04T06:30:29.715Z,101073.64
2018-12-04T06:32:58.518Z,101075.33
2018-12-04T06:35:29.682Z,101079.78
2018-12-04T06:37:58.509Z,101085.41
2018-12-04T06:40:27.318Z,101085.41
2018-12-04T06:42:56.121Z,101082.80
2018-12-04T06:45:24.954Z,101078.80
2018-12-04T06:47:53.753Z,101072.29
2018-12-04T06:50:22.612Z,101076.55
2018-12-04T06:52:52.677Z,101075.86
2018-12-04T06:55:21.476Z,101067.84
2018-12-04T06:57:58.690Z,101073.68
2018-12-04T07:00:27.524Z,101061.95
2018-12-04T07:02:56.334Z,101061.45
2018-12-04T07:05:25.211Z,101062.03
2018-12-04T07:07:54.010Z,101063.20
2018-12-04T07:10:22.857Z,101071.73
2018-12-04T07:12:53.220Z,101065.12
2018-12-04T07:15:28.314Z,101062.14
2018-12-04T07:18:01.482Z,101057.13
2018-12-04T07:20:31.343Z,101065.37
2018-12-04T07:23:00.169Z,101060.41
2018-12-04T07:25:28.993Z,101057.45
2018-12-04T07:27:58.333Z,101061.53
2018-12-04T07:30:28.388Z,101056.98
2018-12-04T07:32:57.209Z,101059.84
2018-12-04T07:35:26.051Z,101063.02
2018-12-04T07:37:54.849Z,101068.33
2018-12-04T07:40:23.654Z,101068.56
2018-12-04T07:42:52.516Z,101069.98
2018-12-04T07:45:21.309Z,101074.20
2018-12-04T07:47:50.157Z,101077.13
2018-12-04T07:50:18.971Z,101073.47
2018-12-04T07:52:47.813Z,101074.73
2018-12-04T07:55:16.601Z,101076.39
2018-12-04T07:57:45.406Z,101078.48
2018-12-04T08:00:16.465Z,101088.46
2018-12-04T08:02:45.279Z,101077.91
2018-12-04T08:05:14.090Z,101077.34
2018-12-04T08:07:42.966Z,101075.78
2018-12-04T08:10:11.769Z,101075.01
2018-12-04T08:12:40.565Z,101073.89
2018-12-04T08:15:09.441Z,101075.44
2018-12-04T08:17:38.254Z,101067.40
2018-12-04T08:20:09.706Z,101069.67
2018-12-04T08:22:38.639Z,101077.63
2018-12-04T08:25:07.790Z,101069.48
2018-12-04T08:27:40.309Z,101071.63
2018-12-04T08:30:09.579Z,101071.12
2018-12-04T08:32:39.583Z,101063.61
2018-12-04T08:35:10.173Z,101063.50
2018-12-04T08:37:39.593Z,101061.38
2018-12-04T08:40:11.229Z,101063.13
2018-12-04T08:42:40.066Z,101053.47
2018-12-04T08:45:10.385Z,101056.08
2018-12-04T08:47:40.840Z,101047.86
2018-12-04T08:50:09.671Z,101047.07
2018-12-04T08:52:38.625Z,101042.16
2018-12-04T08:55:07.630Z,101047.48
2018-12-04T08:57:36.435Z,101037.53
2018-12-04T09:00:06.326Z,101034.67
2018-12-04T09:02:36.678Z,101036.30
2018-12-04T09:05:06.116Z,101036.78
2018-12-04T09:07:35.929Z,101033.37
2018-12-04T09:10:05.681Z,101025.09
2018-12-04T09:12:34.511Z,101019.92
2018-12-04T09:15:03.470Z,101011.59
2018-12-04T09:17:32.330Z,101004.00
2018-12-04T09:20:01.163Z,101004.88
2018-12-04T09:22:30.696Z,100995.44
2018-12-04T09:25:00.237Z,100971.89
2018-12-04T09:27:29.566Z,100998.81
2018-12-04T09:29:58.477Z,100995.39
2018-12-04T09:32:28.706Z,100987.19
2018-12-04T09:34:57.665Z,100985.84
2018-12-04T09:37:26.453Z,100980.42
2018-12-04T09:39:55.327Z,100974.81
2018-12-04T09:42:24.249Z,100975.80
2018-12-04T09:44:53.090Z,100975.02
2018-12-04T09:47:21.918Z,100968.66
2018-12-04T09:49:54.405Z,100971.22
2018-12-04T09:52:24.698Z,100972.34
2018-12-04T09:54:53.509Z,100973.22
2018-12-04T09:57:22.425Z,100961.26
2018-12-04T09:59:51.239Z,100964.20
2018-12-04T10:02:20.078Z,100955.09
2018-12-04T10:04:48.937Z,100955.03
2018-12-04T10:07:17.769Z,100957.91
2018-12-04T10:09:46.586Z,100952.05
2018-12-04T10:12:16.702Z,100949.19
2018-12-04T10:19:04.869Z,100948.80
2018-12-04T10:21:33.670Z,100942.95
2018-12-04T10:24:02.493Z,100939.84
2018-12-04T10:26:32.573Z,100931.64
2018-12-04T10:29:01.418Z,100930.55
2018-12-04T10:31:31.462Z,100920.48
2018-12-04T10:34:00.321Z,100924.98
2018-12-04T10:36:29.126Z,100918.79
2018-12-04T10:38:58.751Z,100924.36
2018-12-04T10:41:27.695Z,100926.98
2018-12-04T10:43:56.650Z,100921.87
2018-12-04T10:46:25.505Z,100924.66
2018-12-04T10:48:54.333Z,100920.52
2018-12-04T10:51:23.153Z,100919.18
2018-12-04T10:53:51.999Z,100922.65
2018-12-04T10:56:20.803Z,100912.95
2018-12-04T10:58:49.923Z,100916.02
2018-12-04T11:01:27.641Z,100913.97
2018-12-04T11:03:56.440Z,100918.59
2018-12-04T11:06:25.370Z,100921.13
2018-12-04T11:08:54.252Z,100915.77
2018-12-04T11:11:23.037Z,100917.98
2018-12-04T11:13:51.818Z,100916.09
2018-12-04T11:16:20.650Z,100913.16
2018-12-04T11:18:49.430Z,100911.30
2018-12-04T11:21:18.221Z,100910.33
2018-12-04T11:23:48.245Z,100908.62
2018-12-04T11:26:17.049Z,100909.04
2018-12-04T11:28:45.829Z,100908.92
2018-12-04T11:31:14.731Z,100910.39
2018-12-04T11:33:44.011Z,100906.60
2018-12-04T11:36:12.822Z,100908.95
2018-12-04T11:38:43.037Z,100907.44
2018-12-04T11:41:11.862Z,100904.67
2018-12-04T11:43:40.714Z,100903.83
2018-12-04T11:46:09.515Z,100898.73
2018-12-04T11:48:38.301Z,100898.30
2018-12-04T11:51:07.158Z,100896.31
2018-12-04T11:53:35.972Z,100894.72
2018-12-04T11:56:04.772Z,100901.43
2018-12-04T11:58:33.758Z,100894.46
2018-12-04T12:21:18.375Z,100896.42
2018-12-04T12:23:47.219Z,100896.58
2018-12-04T12:26:16.579Z,100898.41
2018-12-04T12:28:45.469Z,100903.77
2018-12-04T12:31:14.289Z,100905.68
2018-12-04T12:33:43.145Z,100897.82
2018-12-04T12:36:12.030Z,100904.38
2018-12-04T12:41:23.946Z,100905.91
2018-12-04T12:43:52.916Z,100907.27
2018-12-04T12:46:22.616Z,100906.36
2018-12-04T12:48:51.518Z,100911.30
2018-12-04T12:51:20.360Z,100909.19
2018-12-04T12:53:49.241Z,100906.06
2018-12-04T12:56:18.140Z,100910.45
2018-12-04T12:58:46.998Z,100910.39
2018-12-04T13:01:15.856Z,100910.30
2018-12-04T13:03:44.694Z,100910.55
2018-12-04T13:06:13.665Z,100911.84
2018-12-04T13:08:42.516Z,100910.66
2018-12-04T13:11:12.683Z,100906.97
2018-12-04T13:13:41.571Z,100907.13
2018-12-04T13:16:10.466Z,100905.73
2018-12-04T13:18:39.297Z,100904.64
2018-12-04T13:21:08.114Z,100904.50
2018-12-04T13:23:36.984Z,100903.70
2018-12-04T13:26:05.870Z,100900.22
2018-12-04T13:28:34.723Z,100899.67
2018-12-04T13:31:03.624Z,100898.37
2018-12-04T13:33:32.593Z,100894.46
2018-12-04T13:36:02.434Z,100896.00
2018-12-04T13:38:31.272Z,100897.44
2018-12-04T13:41:00.076Z,100893.12
2018-12-04T13:43:29.413Z,100889.95
2018-12-04T13:45:58.228Z,100891.81
2018-12-04T13:48:27.030Z,100891.25
2018-12-04T13:50:55.914Z,100889.81
2018-12-04T13:53:24.745Z,100892.24
2018-12-04T13:55:54.917Z,100882.59
2018-12-04T13:58:23.768Z,100884.09
2018-12-04T14:00:52.637Z,100886.95
2018-12-04T14:03:21.509Z,100887.58
2018-12-04T14:05:50.329Z,100888.79
2018-12-04T14:08:19.217Z,100889.56
2018-12-04T14:10:48.128Z,100895.39
2018-12-04T14:13:16.977Z,100889.17
2018-12-04T14:15:45.780Z,100891.28
2018-12-04T14:18:15.198Z,100889.20
2018-12-04T14:20:44.051Z,100886.80
2018-12-04T14:23:12.901Z,100892.30
2018-12-04T14:25:41.941Z,100887.40
2018-12-04T14:28:10.772Z,100889.34
2018-12-04T14:30:40.646Z,100884.08
2018-12-04T14:33:09.467Z,100886.56
2018-12-04T14:35:38.321Z,100888.64
2018-12-04T14:38:07.252Z,100894.27
2018-12-04T14:40:36.206Z,100897.19
2018-12-04T14:43:05.178Z,100890.13
2018-12-04T14:45:35.320Z,100890.98
2018-12-04T14:48:04.209Z,100882.44
2018-12-04T14:50:33.229Z,100883.92
2018-12-04T14:53:02.265Z,100891.13
2018-12-04T14:55:31.209Z,100893.08
2018-12-04T14:58:01.469Z,100891.77
2018-12-04T15:00:30.360Z,100899.23
2018-12-04T15:02:59.170Z,100903.80
2018-12-04T15:05:28.130Z,100905.88
2018-12-04T15:07:57.018Z,100909.31
2018-12-04T15:10:25.911Z,100911.70
2018-12-04T15:12:54.882Z,100910.05
2018-12-04T15:15:24.795Z,100920.14
2018-12-04T15:17:53.855Z,100920.67
2018-12-04T15:20:22.824Z,100918.69
2018-12-04T15:22:51.673Z,100917.05
2018-12-04T15:25:20.538Z,100915.25
2018-12-04T15:27:50.892Z,100924.48
2018-12-04T15:30:19.766Z,100925.44
2018-12-04T15:32:48.701Z,100920.12
2018-12-04T15:35:17.571Z,100921.45
2018-12-04T15:37:46.455Z,100922.65
2018-12-04T15:40:15.407Z,100912.76
2018-12-04T15:42:45.546Z,100920.17
2018-12-04T15:45:14.512Z,100924.02
2018-12-04T15:47:43.371Z,100927.93
2018-12-04T15:50:12.263Z,100928.58
2018-12-04T15:52:41.136Z,100924.80
2018-12-04T15:55:10.076Z,100931.95
2018-12-04T15:57:40.265Z,100928.58
2018-12-04T16:00:10.977Z,100929.76
2018-12-04T16:02:39.870Z,100927.78
2018-12-04T16:05:10.108Z,100928.99
2018-12-04T16:07:39.292Z,100921.80
2018-12-04T16:10:11.259Z,100926.13
2018-12-04T16:12:40.115Z,100925.34
2018-12-04T16:15:09.421Z,100929.38
2018-12-04T16:17:38.234Z,100933.37
2018-12-04T16:20:08.383Z,100931.80
2018-12-04T16:22:37.284Z,100934.98
2018-12-04T16:25:07.833Z,100933.95
2018-12-04T16:27:36.769Z,100937.97
2018-12-04T16:30:09.789Z,100929.49
2018-12-04T16:32:38.671Z,100934.84
2018-12-04T16:37:48.826Z,100934.84
2018-12-04T16:40:17.680Z,100929.70
2018-12-04T16:42:46.533Z,100927.81
2018-12-04T16:45:16.608Z,100930.03
2018-12-04T16:47:45.449Z,100930.78
2018-12-04T16:50:14.293Z,100927.95
2018-12-04T16:52:44.460Z,100936.98
2018-12-04T16:55:13.357Z,100937.16
2018-12-04T16:57:42.198Z,100942.67
2018-12-04T17:00:13.308Z,100934.27
2018-12-04T17:02:42.152Z,100934.59
2018-12-04T17:05:14.048Z,100942.84
2018-12-04T17:07:42.904Z,100946.21
2018-12-04T17:10:12.033Z,100941.87
2018-12-04T17:12:40.969Z,100944.73
2018-12-04T17:15:09.979Z,100936.33
2018-12-04T17:17:40.060Z,100950.72
2018-12-04T17:20:10.386Z,100952.33
2018-12-04T17:22:39.225Z,100944.70
2018-12-04T17:25:08.108Z,100948.77
2018-12-04T17:27:38.298Z,100942.56
2018-12-04T17:30:09.630Z,100946.64
2018-12-04T17:32:39.975Z,100949.22
2018-12-04T17:35:08.829Z,100947.14
2018-12-04T17:37:37.667Z,100944.70
2018-12-04T17:40:07.461Z,100945.66
2018-12-04T17:42:36.286Z,100949.87
2018-12-04T17:45:07.349Z,100948.44
2018-12-04T17:47:37.575Z,100949.08
2018-12-04T17:50:08.121Z,100948.30
2018-12-04T17:52:37.011Z,100951.07
2018-12-04T17:55:06.370Z,100946.05
2018-12-04T17:57:36.677Z,100950.19
2018-12-04T18:00:06.302Z,100951.18
2018-12-04T18:02:35.101Z,100950.90
2018-12-04T18:05:04.138Z,100953.09
2018-12-04T18:07:32.978Z,100958.64
2018-12-04T18:10:01.851Z,100962.41
2018-12-04T18:12:30.728Z,100956.53
2018-12-04T18:14:59.616Z,100959.80
2018-12-04T18:17:30.070Z,100963.77
2018-12-04T18:19:58.914Z,100961.68
2018-12-04T18:22:27.789Z,100958.96
2018-12-04T18:24:57.914Z,100963.34
2018-12-04T18:27:26.738Z,100965.63
2018-12-04T18:29:55.939Z,100964.34
2018-12-04T18:32:25.318Z,100963.05
2018-12-04T18:34:54.145Z,100975.28
2018-12-04T18:37:25.294Z,100972.39
2018-12-04T18:39:54.286Z,100975.68
2018-12-04T18:42:23.152Z,100968.92
2018-12-04T18:44:53.621Z,100974.13
2018-12-04T18:47:22.515Z,100974.84
2018-12-04T18:49:51.430Z,100986.84
2018-12-04T18:52:20.359Z,100981.83
2018-12-04T18:54:49.217Z,100980.13
2018-12-04T18:57:19.537Z,100979.83
2018-12-04T18:59:48.444Z,100979.83
2018-12-04T19:02:17.351Z,100985.23
2018-12-04T19:04:46.375Z,100983.05
2018-12-04T19:07:15.274Z,100985.17
2018-12-04T19:09:44.127Z,100975.03
2018-12-04T19:12:13.101Z,100978.80
2018-12-04T19:14:42.009Z,100975.75
2018-12-04T19:17:10.849Z,100975.48
2018-12-04T19:19:39.692Z,100974.98
2018-12-04T19:22:10.179Z,100978.31
2018-12-04T19:24:39.013Z,100978.02
2018-12-04T19:27:08.778Z,100975.09
2018-12-04T19:29:37.853Z,100977.23
2018-12-04T19:32:06.711Z,100985.09
2018-12-04T19:34:35.694Z,100970.70
2018-12-04T19:37:04.568Z,100970.41
2018-12-04T19:39:34.902Z,100966.33
2018-12-04T19:42:03.953Z,100965.63
2018-12-04T19:44:32.827Z,100962.10
2018-12-04T19:47:01.697Z,100961.90
2018-12-04T19:49:30.497Z,100967.70
2018-12-04T19:51:59.410Z,100972.63
2018-12-04T19:54:28.223Z,100974.12
2018-12-04T19:56:57.055Z,100981.23
2018-12-04T19:59:25.950Z,100978.74
2018-12-04T20:01:54.761Z,100982.08
2018-12-04T20:04:23.575Z,100977.27
2018-12-04T20:06:54.049Z,100976.71
2018-12-04T20:09:22.882Z,100984.39
2018-12-04T20:11:52.209Z,100986.09
2018-12-04T20:14:22.562Z,100985.50
2018-12-04T20:16:51.390Z,100987.92
2018-12-04T20:19:20.483Z,100987.64
2018-12-04T20:21:49.343Z,100993.25
2018-12-04T20:24:18.221Z,100987.64
2018-12-04T20:26:47.021Z,100991.38
2018-12-04T20:29:15.864Z,100991.01
2018-12-04T20:31:44.733Z,100994.69
2018-12-04T20:34:13.562Z,100991.97
2018-12-04T20:36:42.397Z,100989.19
2018-12-04T20:39:11.283Z,100993.59
2018-12-04T20:41:40.131Z,100997.38
2018-12-04T20:44:08.934Z,101003.25
2018-12-04T20:46:37.815Z,101001.76
2018-12-04T20:49:06.666Z,101000.47
2018-12-04T20:51:35.494Z,100994.65
2018-12-04T20:54:04.597Z,100999.31
2018-12-04T20:56:33.415Z,101005.12
2018-12-04T20:59:02.506Z,100997.27
2018-12-04T21:01:31.542Z,101002.38
2018-12-04T21:04:00.370Z,100997.86
2018-12-04T21:06:29.230Z,100999.31
2018-12-04T21:08:58.178Z,100992.20
2018-12-04T21:11:27.024Z,100998.33
2018-12-04T21:13:55.951Z,101002.39
2018-12-04T21:16:24.831Z,101002.97
2018-12-04T21:18:53.686Z,101012.08
2018-12-04T21:21:22.523Z,101009.44
2018-12-04T21:23:51.381Z,101022.27
2018-12-04T21:26:20.324Z,101014.14
2018-12-04T21:28:54.243Z,101013.64
2018-12-04T21:31:28.101Z,101015.75
2018-12-04T21:34:03.301Z,101009.61
2018-12-04T21:36:37.331Z,101006.71
2018-12-04T21:39:13.905Z,101011.30
2018-12-04T21:41:47.825Z,101011.77
2018-12-04T21:44:21.773Z,101013.88
2018-12-04T21:46:55.633Z,101015.92
2018-12-04T21:49:29.857Z,101011.66
2018-12-04T21:51:59.977Z,101004.00
2018-12-04T21:54:28.817Z,101013.64
2018-12-04T21:56:57.613Z,101005.23
2018-12-04T21:59:26.558Z,101004.47
2018-12-04T22:01:55.388Z,101005.37
2018-12-04T22:04:24.229Z,101006.71
2018-12-04T22:06:53.089Z,101007.44
2018-12-04T22:09:21.912Z,101010.92
2018-12-04T22:11:50.770Z,101002.57
2018-12-04T22:14:19.654Z,101000.52
2018-12-04T22:16:48.483Z,100999.18
2018-12-04T22:19:17.346Z,101000.25
2018-12-04T22:21:46.677Z,100999.13
2018-12-04T22:24:15.509Z,100999.83
2018-12-04T22:26:44.321Z,100994.28
2018-12-04T22:29:13.195Z,100997.23
2018-12-04T22:31:42.015Z,100997.38
2018-12-04T22:34:10.851Z,100998.70
2018-12-04T22:36:40.307Z,100996.68
2018-12-04T22:39:10.358Z,101002.13
2018-12-04T22:41:39.215Z,100995.87
2018-12-04T22:44:08.097Z,100993.98
2018-12-04T22:46:37.167Z,101002.58
2018-12-04T22:49:06.394Z,101003.92
2018-12-04T22:51:36.703Z,101001.84
2018-12-04T22:54:05.717Z,101000.16
2018-12-04T22:56:34.565Z,100997.58
2018-12-04T22:59:03.408Z,100991.66
2018-12-04T23:01:41.382Z,100985.95
2018-12-04T23:04:10.392Z,100988.34
2018-12-04T23:06:39.239Z,100982.47
2018-12-04T23:09:10.969Z,100989.18
2018-12-04T23:11:40.541Z,100990.97
2018-12-04T23:14:09.368Z,100996.87
2018-12-04T23:16:38.350Z,100999.77
2018-12-04T23:19:07.189Z,100992.91
2018-12-04T23:21:36.033Z,100994.75
2018-12-04T23:24:04.941Z,100992.26
2018-12-04T23:26:33.773Z,100991.22
2018-12-04T23:29:02.620Z,100990.43
2018-12-04T23:31:31.936Z,100990.97
2018-12-04T23:34:00.767Z,100988.74
2018-12-04T23:36:29.584Z,100993.30
2018-12-04T23:38:58.481Z,100994.98
2018-12-04T23:41:27.304Z,100987.13
2018-12-04T23:43:56.150Z,100996.58
2018-12-04T23:46:25.033Z,101000.01
2018-12-04T23:48:53.889Z,100995.38
2018-12-04T23:51:22.752Z,100995.14
2018-12-04T23:53:51.619Z,100994.39
2018-12-04T23:56:20.477Z,100991.80
2018-12-04T23:58:49.424Z,100999.81
